createdAt,value
2022-10-07T00:02:10.574Z,0.10
2022-10-07T00:04:37.269Z,0.10
2022-10-07T00:07:03.876Z,0.10
2022-10-07T00:09:30.805Z,0.10
2022-10-07T00:11:57.296Z,0.10
2022-10-07T00:14:23.833Z,0.10
2022-10-07T00:16:50.589Z,0.10
2022-10-07T00:19:17.207Z,0.10
2022-10-07T00:21:43.743Z,0.10
2022-10-07T00:24:11.200Z,0.10
2022-10-07T00:26:38.090Z,0.10
2022-10-07T00:29:07.180Z,0.10
2022-10-07T00:31:36.235Z,0.10
2022-10-07T00:34:04.619Z,0.10
2022-10-07T00:36:36.821Z,0.10
2022-10-07T00:39:07.323Z,0.15
2022-10-07T00:41:37.080Z,0.10
2022-10-07T00:44:32.274Z,0.10
2022-10-07T00:47:00.946Z,0.10
2022-10-07T00:49:30.265Z,0.10
2022-10-07T00:51:57.942Z,0.20
2022-10-07T00:54:24.916Z,0.10
2022-10-07T00:56:52.437Z,0.10
2022-10-07T00:59:21.005Z,0.10
2022-10-07T01:01:47.540Z,0.10
2022-10-07T01:04:15.100Z,0.10
2022-10-07T01:06:43.009Z,0.10
2022-10-07T01:09:11.139Z,0.10
2022-10-07T01:11:47.271Z,0.10
2022-10-07T01:14:31.542Z,0.10
2022-10-07T01:19:45.927Z,0.10
2022-10-07T01:22:41.470Z,0.10
2022-10-07T01:25:23.326Z,0.10
2022-10-07T01:27:56.899Z,0.10
2022-10-07T01:30:24.255Z,0.10
2022-10-07T01:32:59.753Z,0.10
2022-10-07T01:35:32.813Z,0.10
2022-10-07T01:38:04.546Z,0.10
2022-10-07T01:40:40.062Z,0.10
2022-10-07T01:43:06.760Z,0.20
2022-10-07T01:45:35.596Z,0.10
2022-10-07T01:48:02.234Z,0.10
2022-10-07T01:50:31.504Z,0.10
2022-10-07T01:53:26.633Z,0.10
2022-10-07T01:56:12.891Z,0.10
2022-10-07T01:59:09.586Z,0.10
2022-10-07T02:01:59.209Z,0.10
2022-10-07T02:04:43.509Z,0.10
2022-10-07T02:07:28.818Z,0.10
2022-10-07T02:10:24.118Z,0.10
2022-10-07T02:13:32.010Z,0.10
2022-10-07T02:16:05.620Z,0.10
2022-10-07T02:18:35.198Z,0.20
2022-10-07T02:21:05.760Z,0.10
2022-10-07T02:23:34.405Z,0.10
2022-10-07T02:26:03.819Z,0.10
2022-10-07T02:28:33.304Z,0.10
2022-10-07T02:31:04.054Z,0.10
2022-10-07T02:33:33.989Z,0.10
2022-10-07T02:36:05.090Z,0.10
2022-10-07T02:38:32.403Z,0.10
2022-10-07T02:41:07.984Z,0.10
2022-10-07T02:43:46.352Z,0.20
2022-10-07T02:46:20.235Z,0.10
2022-10-07T02:48:58.883Z,0.10
2022-10-07T02:51:31.003Z,0.10
2022-10-07T02:53:58.713Z,0.10
2022-10-07T02:56:26.418Z,0.10
2022-10-07T02:58:53.922Z,0.17
2022-10-07T03:01:25.892Z,0.20
2022-10-07T03:03:52.657Z,0.20
2022-10-07T03:06:19.684Z,0.10
2022-10-07T03:08:48.032Z,0.10
2022-10-07T03:11:14.918Z,0.10
2022-10-07T03:13:41.874Z,0.20
2022-10-07T03:16:08.580Z,0.20
2022-10-07T03:18:35.164Z,0.10
2022-10-07T03:21:09.361Z,0.10
2022-10-07T03:23:36.380Z,0.10
2022-10-07T03:26:03.047Z,0.10
2022-10-07T03:28:32.215Z,0.20
2022-10-07T03:31:07.771Z,0.20
2022-10-07T03:33:37.356Z,0.10
2022-10-07T03:36:06.003Z,0.10
2022-10-07T03:38:33.141Z,0.20
2022-10-07T03:41:01.971Z,0.20
2022-10-07T03:43:28.938Z,0.20
2022-10-07T03:45:57.048Z,0.20
2022-10-07T03:48:23.828Z,0.20
2022-10-07T03:50:56.555Z,0.10
2022-10-07T03:53:27.121Z,0.10
2022-10-07T03:55:53.952Z,0.20
2022-10-07T03:58:21.148Z,0.20
2022-10-07T04:00:48.484Z,0.20
2022-10-07T04:03:16.428Z,0.10
2022-10-07T04:05:45.289Z,0.17
2022-10-07T04:08:13.890Z,0.20
2022-10-07T04:10:40.459Z,0.10
2022-10-07T04:13:07.187Z,0.10
2022-10-07T04:15:34.548Z,0.10
2022-10-07T04:18:01.148Z,0.10
2022-10-07T04:20:29.504Z,0.10
2022-10-07T04:22:57.366Z,0.10
2022-10-07T04:25:37.644Z,0.20
2022-10-07T04:28:20.899Z,0.20
2022-10-07T04:30:54.100Z,0.10
2022-10-07T04:33:30.882Z,0.20
2022-10-07T04:36:06.482Z,0.10
2022-10-07T04:38:36.867Z,0.20
2022-10-07T04:41:06.934Z,0.20
2022-10-07T04:43:35.358Z,0.20
2022-10-07T04:46:10.915Z,0.13
2022-10-07T04:48:46.023Z,0.20
2022-10-07T04:51:16.126Z,0.30
2022-10-07T04:53:56.829Z,0.20
2022-10-07T04:56:31.286Z,0.30
2022-10-07T04:58:58.653Z,0.13
2022-10-07T05:01:25.651Z,0.13
2022-10-07T05:03:52.337Z,0.20
2022-10-07T05:06:18.900Z,0.20
2022-10-07T05:08:45.850Z,0.10
2022-10-07T05:11:13.684Z,0.20
2022-10-07T05:13:49.041Z,0.20
2022-10-07T05:16:16.355Z,0.20
2022-10-07T05:18:43.329Z,0.20
2022-10-07T05:21:12.269Z,0.20
2022-10-07T05:23:43.055Z,0.10
2022-10-07T05:26:14.301Z,0.20
2022-10-07T05:28:45.715Z,0.20
2022-10-07T05:31:15.951Z,0.10
2022-10-07T05:33:49.514Z,0.20
2022-10-07T05:36:18.150Z,0.20
2022-10-07T05:38:44.772Z,0.20
2022-10-07T05:41:12.378Z,0.10
2022-10-07T05:43:46.685Z,0.20
2022-10-07T05:46:20.451Z,0.20
2022-10-07T05:48:53.444Z,0.10
2022-10-07T05:51:24.559Z,0.20
2022-10-07T05:53:56.334Z,0.28
2022-10-07T05:56:27.206Z,0.10
2022-10-07T05:58:57.338Z,0.30
2022-10-07T06:01:28.127Z,0.38
2022-10-07T06:03:57.677Z,0.10
2022-10-07T06:06:27.094Z,0.10
2022-10-07T06:09:16.426Z,0.10
2022-10-07T06:12:02.485Z,0.10
2022-10-07T06:14:30.848Z,0.20
2022-10-07T06:16:57.540Z,0.10
2022-10-07T06:19:24.337Z,0.10
2022-10-07T06:21:54.450Z,0.10
2022-10-07T06:24:21.123Z,0.10
2022-10-07T06:26:48.583Z,0.10
2022-10-07T06:29:16.254Z,0.10
2022-10-07T06:31:43.011Z,0.20
2022-10-07T06:34:09.789Z,0.35
2022-10-07T06:36:36.952Z,0.10
2022-10-07T06:39:04.170Z,0.10
2022-10-07T06:41:36.301Z,0.57
2022-10-07T06:44:22.864Z,0.20
2022-10-07T06:46:51.747Z,0.30
2022-10-07T06:49:19.487Z,0.20
2022-10-07T06:51:46.969Z,0.10
2022-10-07T06:54:13.595Z,0.15
2022-10-07T06:56:40.275Z,0.10
2022-10-07T06:59:07.082Z,0.10
2022-10-07T07:01:42.198Z,0.10
2022-10-07T07:04:08.844Z,0.10
2022-10-07T07:06:37.717Z,0.10
2022-10-07T07:09:06.765Z,0.10
2022-10-07T07:11:36.923Z,0.10
2022-10-07T07:14:23.807Z,0.10
2022-10-07T07:17:00.250Z,0.10
2022-10-07T07:19:27.377Z,0.10
2022-10-07T07:21:55.461Z,0.10
2022-10-07T07:24:24.155Z,0.10
2022-10-07T07:26:51.693Z,0.10
2022-10-07T07:29:19.386Z,0.10
2022-10-07T07:32:00.245Z,0.10
2022-10-07T07:34:30.309Z,0.10
2022-10-07T07:36:57.410Z,0.10
2022-10-07T07:39:29.303Z,0.10
2022-10-07T07:42:02.176Z,0.10
2022-10-07T07:44:34.015Z,0.10
2022-10-07T07:47:02.871Z,0.10
2022-10-07T07:49:32.039Z,0.10
2022-10-07T07:51:59.087Z,0.10
2022-10-07T07:54:30.598Z,0.10
2022-10-07T07:56:57.652Z,0.10
2022-10-07T07:59:26.697Z,0.00
2022-10-07T08:01:55.507Z,0.10
2022-10-07T08:04:22.890Z,0.10
2022-10-07T08:06:50.088Z,0.00
2022-10-07T08:09:16.950Z,0.10
2022-10-07T08:11:45.563Z,0.10
2022-10-07T08:14:16.239Z,0.00
2022-10-07T08:16:47.372Z,0.00
2022-10-07T08:19:14.160Z,0.00
2022-10-07T08:21:41.216Z,0.00
2022-10-07T08:24:12.749Z,0.00
2022-10-07T08:26:39.632Z,0.00
2022-10-07T08:29:09.186Z,0.00
2022-10-07T08:31:35.971Z,0.00
2022-10-07T08:34:05.041Z,0.10
2022-10-07T08:36:33.927Z,0.00
2022-10-07T08:39:01.898Z,0.08
2022-10-07T08:41:34.416Z,0.00
2022-10-07T08:44:19.170Z,0.00
2022-10-07T08:46:52.379Z,0.00
2022-10-07T08:49:27.999Z,0.00
2022-10-07T08:52:01.508Z,0.00
2022-10-07T08:54:30.881Z,0.00
2022-10-07T08:57:03.778Z,0.00
2022-10-07T08:59:34.843Z,0.00
2022-10-07T09:02:27.157Z,0.00
2022-10-07T09:05:05.710Z,0.00
2022-10-07T09:07:36.218Z,0.00
2022-10-07T09:10:08.705Z,0.00
2022-10-07T09:13:08.164Z,0.00
2022-10-07T09:15:43.312Z,0.00
2022-10-07T09:18:20.250Z,0.00
2022-10-07T09:20:53.584Z,0.00
2022-10-07T09:23:31.347Z,0.00
2022-10-07T09:25:58.010Z,0.00
2022-10-07T09:28:30.356Z,0.00
2022-10-07T09:30:59.627Z,0.00
2022-10-07T09:33:29.762Z,0.00
2022-10-07T09:36:11.668Z,0.00
2022-10-07T09:38:43.229Z,0.00
2022-10-07T09:41:35.330Z,0.00
2022-10-07T09:44:04.015Z,0.00
2022-10-07T09:46:49.431Z,0.00
2022-10-07T09:49:41.639Z,0.00
2022-10-07T09:52:16.296Z,0.00
2022-10-07T09:54:45.185Z,0.00
2022-10-07T09:57:27.592Z,0.00
2022-10-07T10:00:25.043Z,0.00
2022-10-07T10:03:06.354Z,0.00
2022-10-07T10:05:38.803Z,0.00
2022-10-07T10:08:14.423Z,0.00
2022-10-07T10:10:53.647Z,0.00
2022-10-07T10:13:40.773Z,0.00
2022-10-07T10:16:27.855Z,0.00
2022-10-07T10:18:59.716Z,0.00
2022-10-07T10:21:29.863Z,0.00
2022-10-07T10:24:03.877Z,0.00
2022-10-07T10:26:57.812Z,0.00
2022-10-07T10:29:42.667Z,0.00
2022-10-07T10:32:40.598Z,0.00
2022-10-07T10:35:22.505Z,0.00
2022-10-07T10:38:32.418Z,0.00
2022-10-07T10:41:33.028Z,0.00
2022-10-07T10:44:24.195Z,0.00
2022-10-07T10:47:21.877Z,0.00
2022-10-07T10:50:15.393Z,0.00
2022-10-07T10:52:54.003Z,0.00
2022-10-07T10:55:23.865Z,0.00
2022-10-07T10:58:02.223Z,0.00
2022-10-07T11:00:50.797Z,0.00
2022-10-07T11:03:38.656Z,0.00
2022-10-07T11:06:10.726Z,0.00
2022-10-07T11:08:38.809Z,0.00
2022-10-07T11:11:26.736Z,0.00
2022-10-07T11:13:56.874Z,0.00
2022-10-07T11:16:41.759Z,0.00
2022-10-07T11:19:30.942Z,0.00
2022-10-07T11:22:02.215Z,0.00
2022-10-07T11:24:47.768Z,0.00
2022-10-07T11:27:19.610Z,0.00
2022-10-07T11:29:57.179Z,0.00
2022-10-07T11:32:45.463Z,0.00
2022-10-07T11:35:24.129Z,0.00
2022-10-07T11:38:00.932Z,0.00
2022-10-07T11:40:31.963Z,0.00
2022-10-07T11:43:09.081Z,0.00
2022-10-07T11:45:49.965Z,0.00
2022-10-07T11:48:27.009Z,0.00
2022-10-07T11:51:01.376Z,0.00
2022-10-07T11:53:32.069Z,0.00
2022-10-07T11:56:04.747Z,0.00
2022-10-07T11:58:37.476Z,0.00
2022-10-07T12:01:25.696Z,0.00
2022-10-07T12:03:54.252Z,0.00
2022-10-07T12:06:20.922Z,0.00
2022-10-07T12:08:47.733Z,0.00
2022-10-07T12:11:15.210Z,0.00
2022-10-07T12:13:43.736Z,0.00
2022-10-07T12:16:30.200Z,0.00
2022-10-07T12:19:06.365Z,0.00
2022-10-07T12:22:04.359Z,0.00
2022-10-07T12:24:33.122Z,0.00
2022-10-07T12:27:14.546Z,0.00
2022-10-07T12:29:51.199Z,0.00
2022-10-07T12:32:40.915Z,0.00
2022-10-07T12:35:29.545Z,0.00
2022-10-07T12:38:20.018Z,0.00
2022-10-07T12:40:53.664Z,0.00
2022-10-07T12:43:48.456Z,0.00
2022-10-07T12:46:18.780Z,0.00
2022-10-07T12:48:58.600Z,0.00
2022-10-07T12:51:37.665Z,0.00
2022-10-07T12:54:11.313Z,0.00
2022-10-07T12:56:37.913Z,0.00
2022-10-07T12:59:35.494Z,0.00
2022-10-07T13:02:46.821Z,0.00
2022-10-07T13:05:32.001Z,0.00
2022-10-07T13:08:17.583Z,0.00
2022-10-07T13:11:06.056Z,0.00
2022-10-07T13:13:42.266Z,0.00
2022-10-07T13:16:19.694Z,0.00
2022-10-07T13:18:55.369Z,0.00
2022-10-07T13:21:27.357Z,0.00
2022-10-07T13:23:55.928Z,0.00
2022-10-07T13:26:25.003Z,0.00
2022-10-07T13:28:54.671Z,0.00
2022-10-07T13:31:24.325Z,0.00
2022-10-07T13:33:52.781Z,0.00
2022-10-07T13:36:23.940Z,0.00
2022-10-07T13:38:53.750Z,0.00
2022-10-07T13:41:25.419Z,0.00
2022-10-07T13:43:56.674Z,0.00
2022-10-07T13:46:26.440Z,0.00
2022-10-07T13:48:56.412Z,0.00
2022-10-07T13:51:40.039Z,0.00
2022-10-07T13:54:18.370Z,0.00
2022-10-07T13:56:45.566Z,0.00
2022-10-07T13:59:17.943Z,0.00
2022-10-07T14:02:03.139Z,0.00
2022-10-07T14:04:36.012Z,0.00
2022-10-07T14:07:16.795Z,0.00
2022-10-07T14:09:55.939Z,0.00
2022-10-07T14:12:31.440Z,0.00
2022-10-07T14:15:12.199Z,0.00
2022-10-07T14:17:38.735Z,0.00
2022-10-07T14:20:17.609Z,0.00
2022-10-07T14:22:50.045Z,0.00
2022-10-07T14:25:22.238Z,0.00
2022-10-07T14:27:55.377Z,0.00
2022-10-07T14:30:57.426Z,0.00
2022-10-07T14:33:47.587Z,0.00
2022-10-07T14:36:19.981Z,0.00
2022-10-07T14:38:49.714Z,0.00
2022-10-07T14:41:19.571Z,0.00
2022-10-07T14:43:48.450Z,0.00
2022-10-07T14:46:19.007Z,0.00
2022-10-07T14:48:46.624Z,0.00
2022-10-07T14:51:16.465Z,0.00
2022-10-07T14:53:43.495Z,0.00
2022-10-07T14:56:13.975Z,0.00
2022-10-07T14:58:42.365Z,0.00
2022-10-07T15:01:08.937Z,0.00
2022-10-07T15:03:35.650Z,0.00
2022-10-07T15:06:02.286Z,0.00
2022-10-07T15:08:29.217Z,0.00
2022-10-07T15:10:55.818Z,0.00
2022-10-07T15:13:22.400Z,0.00
2022-10-07T15:15:49.264Z,0.00
2022-10-07T15:18:15.832Z,0.00
2022-10-07T15:20:42.466Z,0.00
2022-10-07T15:23:09.610Z,0.00
2022-10-07T15:25:39.788Z,0.00
2022-10-07T15:28:06.486Z,0.00
2022-10-07T15:30:38.390Z,0.00
2022-10-07T15:33:05.891Z,0.00
2022-10-07T15:35:33.045Z,0.00
2022-10-07T15:37:59.701Z,0.00
2022-10-07T15:40:26.300Z,0.00
2022-10-07T15:42:52.846Z,0.00
2022-10-07T15:45:19.562Z,0.00
2022-10-07T15:47:46.122Z,0.00
2022-10-07T15:50:12.716Z,0.00
2022-10-07T15:52:39.260Z,0.00
2022-10-07T15:55:07.770Z,0.00
2022-10-07T15:57:35.152Z,0.00
2022-10-07T16:00:02.515Z,0.00
2022-10-07T16:02:38.636Z,0.00
2022-10-07T16:05:05.544Z,0.00
2022-10-07T16:07:32.080Z,0.00
2022-10-07T16:09:58.636Z,0.00
2022-10-07T16:12:25.250Z,0.00
2022-10-07T16:14:52.185Z,0.00
2022-10-07T16:17:19.018Z,0.00
2022-10-07T16:19:45.682Z,0.00
2022-10-07T16:22:12.318Z,0.00
2022-10-07T16:24:39.793Z,0.00
2022-10-07T16:27:06.824Z,0.00
2022-10-07T16:29:52.083Z,0.00
2022-10-07T16:32:18.645Z,0.00
2022-10-07T16:34:45.390Z,0.00
2022-10-07T16:37:12.640Z,0.00
2022-10-07T16:39:39.327Z,0.00
2022-10-07T16:42:05.916Z,0.00
2022-10-07T16:44:32.605Z,0.00
2022-10-07T16:46:59.536Z,0.00
2022-10-07T16:49:27.800Z,0.00
2022-10-07T16:51:54.506Z,0.00
2022-10-07T16:54:21.903Z,0.00
2022-10-07T16:56:52.445Z,0.00
2022-10-07T16:59:23.937Z,0.00
2022-10-07T17:01:52.932Z,0.00
2022-10-07T17:04:20.039Z,0.00
2022-10-07T17:06:47.355Z,0.00
2022-10-07T17:09:14.467Z,0.00
2022-10-07T17:11:41.831Z,0.00
2022-10-07T17:14:11.298Z,0.00
2022-10-07T17:16:48.730Z,0.00
2022-10-07T17:19:20.452Z,0.00
2022-10-07T17:21:48.600Z,0.00
2022-10-07T17:24:16.810Z,0.00
2022-10-07T17:26:44.912Z,0.00
2022-10-07T17:29:13.602Z,0.00
2022-10-07T17:31:48.126Z,0.00
2022-10-07T17:34:16.159Z,0.00
2022-10-07T17:36:43.909Z,0.00
2022-10-07T17:39:10.761Z,0.00
2022-10-07T17:41:39.056Z,0.00
2022-10-07T17:44:10.728Z,0.00
2022-10-07T17:46:39.380Z,0.00
2022-10-07T17:49:08.064Z,0.00
2022-10-07T17:51:37.167Z,0.00
2022-10-07T17:54:05.044Z,0.00
2022-10-07T17:56:32.048Z,0.00
2022-10-07T17:58:59.215Z,0.00
2022-10-07T18:01:27.909Z,0.00
2022-10-07T18:03:59.206Z,0.00
2022-10-07T18:06:27.243Z,0.00
2022-10-07T18:08:54.259Z,0.00
2022-10-07T18:11:21.084Z,0.00
2022-10-07T18:14:06.242Z,0.00
2022-10-07T18:16:34.076Z,0.00
2022-10-07T18:19:00.857Z,0.00
2022-10-07T18:21:30.291Z,0.00
2022-10-07T18:23:57.608Z,0.00
2022-10-07T18:26:24.738Z,0.00
2022-10-07T18:28:51.473Z,0.00
2022-10-07T18:31:19.247Z,0.10
2022-10-07T18:33:46.358Z,0.00
2022-10-07T18:36:18.734Z,0.00
2022-10-07T18:38:45.513Z,0.00
2022-10-07T18:41:17.156Z,0.00
2022-10-07T18:43:48.402Z,0.00
2022-10-07T18:46:18.717Z,0.00
2022-10-07T18:48:48.136Z,0.00
2022-10-07T18:51:15.732Z,0.00
2022-10-07T18:53:44.720Z,0.00
2022-10-07T18:56:14.107Z,0.00
2022-10-07T18:58:42.975Z,0.00
2022-10-07T19:01:17.628Z,0.00
2022-10-07T19:03:44.913Z,0.00
2022-10-07T19:06:18.652Z,0.00
2022-10-07T19:08:46.245Z,0.00
2022-10-07T19:11:15.792Z,0.00
2022-10-07T19:13:53.706Z,0.00
2022-10-07T19:16:35.150Z,0.00
2022-10-07T19:19:08.046Z,0.00
2022-10-07T19:21:35.546Z,0.00
2022-10-07T19:24:03.413Z,0.00
2022-10-07T19:26:34.147Z,0.00
2022-10-07T19:29:01.475Z,0.00
2022-10-07T19:31:35.287Z,0.00
2022-10-07T19:36:35.100Z,0.00
2022-10-07T19:39:01.929Z,0.00
2022-10-07T19:41:33.559Z,0.00
2022-10-07T19:44:01.676Z,0.00
2022-10-07T19:46:30.687Z,0.00
2022-10-07T19:48:59.201Z,0.00
2022-10-07T19:51:28.450Z,0.00
2022-10-07T19:53:57.276Z,0.03
2022-10-07T19:56:26.761Z,0.00
2022-10-07T19:59:02.396Z,0.00
2022-10-07T20:01:32.359Z,0.00
2022-10-07T20:04:10.661Z,0.00
2022-10-07T20:06:37.726Z,0.00
2022-10-07T20:09:09.584Z,0.00
2022-10-07T20:11:36.470Z,0.00
2022-10-07T20:14:05.797Z,0.00
2022-10-07T20:16:34.137Z,0.00
2022-10-07T20:19:06.616Z,0.00
2022-10-07T20:21:35.856Z,0.00
2022-10-07T20:24:04.288Z,0.00
2022-10-07T20:26:34.046Z,0.00
2022-10-07T20:29:02.390Z,0.00
2022-10-07T20:31:34.924Z,0.00
2022-10-07T20:34:02.693Z,0.00
2022-10-07T20:36:31.629Z,0.00
2022-10-07T20:39:25.452Z,0.00
2022-10-07T20:42:11.689Z,0.00
2022-10-07T20:44:38.941Z,0.00
2022-10-07T20:47:07.676Z,0.00
2022-10-07T20:49:35.261Z,0.00
2022-10-07T20:52:04.944Z,0.00
2022-10-07T20:54:33.197Z,0.00
2022-10-07T20:57:00.578Z,0.00
2022-10-07T20:59:28.384Z,0.00
2022-10-07T21:01:55.266Z,0.05
2022-10-07T21:04:22.582Z,0.00
2022-10-07T21:06:52.343Z,0.00
2022-10-07T21:09:19.699Z,0.00
2022-10-07T21:11:47.285Z,0.10
2022-10-07T21:14:14.566Z,0.00
2022-10-07T21:16:42.254Z,0.00
2022-10-07T21:19:09.398Z,0.10
2022-10-07T21:21:36.049Z,0.00
2022-10-07T21:24:02.594Z,0.00
2022-10-07T21:26:29.165Z,0.00
2022-10-07T21:28:55.890Z,0.00
2022-10-07T21:31:22.826Z,0.10
2022-10-07T21:33:51.360Z,0.00
2022-10-07T21:36:20.989Z,0.00
2022-10-07T21:38:53.804Z,0.00
2022-10-07T21:41:23.425Z,0.00
2022-10-07T21:43:51.818Z,0.00
2022-10-07T21:46:19.163Z,0.00
2022-10-07T21:48:45.770Z,0.00
2022-10-07T21:51:12.615Z,0.00
2022-10-07T21:53:39.679Z,0.00
2022-10-07T21:56:08.440Z,0.00
2022-10-07T21:58:35.920Z,0.03
2022-10-07T22:01:08.433Z,0.00
2022-10-07T22:03:35.077Z,0.00
2022-10-07T22:06:12.931Z,0.00
2022-10-07T22:08:40.927Z,0.00
2022-10-07T22:11:18.836Z,0.10
2022-10-07T22:13:49.722Z,0.00
2022-10-07T22:16:18.178Z,0.10
2022-10-07T22:18:49.479Z,0.00
2022-10-07T22:21:28.150Z,0.10
2022-10-07T22:24:02.857Z,0.10
2022-10-07T22:26:33.373Z,0.10
2022-10-07T22:29:00.232Z,0.10
2022-10-07T22:31:26.974Z,0.00
2022-10-07T22:33:57.276Z,0.03
2022-10-07T22:36:24.432Z,0.00
2022-10-07T22:38:51.330Z,0.00
2022-10-07T22:41:19.499Z,0.00
2022-10-07T22:43:47.681Z,0.00
2022-10-07T22:46:20.831Z,0.00
2022-10-07T22:48:49.180Z,0.10
2022-10-07T22:51:16.702Z,0.00
2022-10-07T22:53:49.756Z,0.00
2022-10-07T22:56:18.036Z,0.10
2022-10-07T22:58:50.518Z,0.10
2022-10-07T23:01:17.554Z,0.00
2022-10-07T23:03:44.700Z,0.10
2022-10-07T23:06:13.754Z,0.08
2022-10-07T23:08:40.533Z,0.00
2022-10-07T23:11:08.342Z,0.00
2022-10-07T23:13:36.543Z,0.10
2022-10-07T23:16:11.321Z,0.10
2022-10-07T23:18:38.998Z,0.10
2022-10-07T23:21:08.552Z,0.10
2022-10-07T23:23:37.136Z,0.10
2022-10-07T23:26:05.472Z,0.00
2022-10-07T23:28:34.361Z,0.00
2022-10-07T23:31:11.733Z,0.00
2022-10-07T23:33:38.700Z,0.00
2022-10-07T23:36:08.916Z,0.00
2022-10-07T23:38:41.060Z,0.00
2022-10-07T23:41:07.764Z,0.10
2022-10-07T23:43:34.485Z,0.00
2022-10-07T23:46:02.154Z,0.00
2022-10-07T23:48:28.946Z,0.00
2022-10-07T23:50:55.679Z,0.00
2022-10-07T23:53:22.780Z,0.00
2022-10-07T23:55:51.409Z,0.00
2022-10-07T23:58:20.668Z,0.03
